Terminal Aerodrome Forecast
Issued by NWS Omaha/Valley, NE

Home | Current Version | Previous Version | Graphics & Text | Print | Product List | Glossary On
Versions: 1 2 3 4 5 6 7 8 9 10 11 12 13 14 15 16 17 18
000
FTUS43 KOAX 190947 AAB
TAFOFK
TAF AMD
KOFK 190947Z 1910/2006 13007KT 3SM BR OVC006
      TEMPO 1911/1914 2SM BR OVC003
     FM191500 16011KT P6SM SCT025
     FM191800 16018G25KT P6SM SCT050
     FM200300 16012G23KT P6SM BKN100 WS020/17045KT=

USA.gov is the U.S. government's official web portal to all federal, state and local government web resources and services.